createdAt,value
2022-12-18T00:00:36.035Z,36.30
2022-12-18T00:03:07.289Z,39.57
2022-12-18T00:05:38.281Z,34.67
2022-12-18T00:08:09.259Z,35.10
2022-12-18T00:10:38.996Z,50.03
2022-12-18T00:13:10.179Z,43.80
2022-12-18T00:15:40.054Z,39.10
2022-12-18T00:18:12.939Z,42.60
2022-12-18T00:20:44.597Z,46.30
2022-12-18T00:23:14.086Z,35.53
2022-12-18T00:25:43.606Z,39.40
2022-12-18T00:28:13.031Z,36.37
2022-12-18T00:30:42.221Z,39.20
2022-12-18T00:33:13.189Z,44.30
2022-12-18T00:35:42.669Z,42.20
2022-12-18T00:38:13.159Z,32.07
2022-12-18T00:40:42.749Z,44.97
2022-12-18T00:43:11.205Z,44.87
2022-12-18T00:45:40.793Z,49.67
2022-12-18T00:48:10.093Z,37.57
2022-12-18T00:50:41.540Z,36.90
2022-12-18T00:53:14.275Z,45.80
2022-12-18T00:55:44.156Z,35.70
2022-12-18T00:58:15.909Z,36.97
2022-12-18T01:00:45.705Z,38.97
2022-12-18T01:03:17.347Z,28.43
2022-12-18T01:05:48.580Z,42.53
2022-12-18T01:08:20.810Z,28.83
2022-12-18T01:10:51.915Z,32.40
2022-12-18T01:13:21.746Z,44.27
2022-12-18T01:15:53.540Z,42.93
2022-12-18T01:18:23.095Z,43.17
2022-12-18T01:20:55.033Z,44.50
2022-12-18T01:23:24.351Z,48.93
2022-12-18T01:25:56.789Z,39.40
2022-12-18T01:28:26.058Z,36.13
2022-12-18T01:30:55.219Z,38.30
2022-12-18T01:33:24.647Z,38.03
2022-12-18T01:35:56.493Z,39.57
2022-12-18T01:38:25.910Z,36.23
2022-12-18T01:41:00.358Z,39.30
2022-12-18T01:43:48.960Z,38.87
2022-12-18T01:46:20.703Z,44.13
2022-12-18T01:48:53.461Z,30.83
2022-12-18T01:51:27.712Z,41.33
2022-12-18T01:53:57.246Z,42.40
2022-12-18T01:56:26.596Z,32.23
2022-12-18T01:59:02.018Z,43.57
2022-12-18T02:01:33.830Z,51.97
2022-12-18T02:04:24.267Z,40.93
2022-12-18T02:07:05.070Z,39.13
2022-12-18T02:09:40.864Z,43.37
2022-12-18T02:12:18.453Z,38.57
2022-12-18T02:14:53.432Z,38.97
2022-12-18T02:17:24.506Z,38.90
2022-12-18T02:20:08.220Z,34.17
2022-12-18T02:22:46.830Z,45.17
2022-12-18T02:25:27.249Z,47.00
2022-12-18T02:28:04.352Z,37.53
2022-12-18T02:30:36.550Z,43.47
2022-12-18T02:33:09.400Z,42.80
2022-12-18T02:35:41.472Z,47.47
2022-12-18T02:38:11.773Z,36.43
2022-12-18T02:40:52.905Z,34.67
2022-12-18T02:43:24.526Z,41.83
2022-12-18T02:45:58.858Z,38.97
2022-12-18T02:48:34.158Z,35.03
2022-12-18T02:51:12.331Z,36.07
2022-12-18T02:53:48.050Z,51.63
2022-12-18T02:56:22.234Z,38.50
2022-12-18T02:59:03.693Z,33.53
2022-12-18T03:01:47.892Z,35.43
2022-12-18T03:04:22.951Z,31.03
2022-12-18T03:06:54.196Z,32.97
2022-12-18T03:09:30.556Z,33.10
2022-12-18T03:12:22.052Z,48.20
2022-12-18T03:14:57.848Z,40.63
2022-12-18T03:17:30.780Z,49.00
2022-12-18T03:20:05.001Z,34.47
2022-12-18T03:22:37.920Z,34.20
2022-12-18T03:25:12.113Z,30.30
2022-12-18T03:27:46.993Z,33.07
2022-12-18T03:30:19.732Z,28.73
2022-12-18T03:32:57.580Z,34.57
2022-12-18T03:35:34.482Z,36.07
2022-12-18T03:38:04.651Z,35.23
2022-12-18T03:40:47.646Z,39.17
2022-12-18T03:43:26.843Z,34.60
2022-12-18T03:46:05.730Z,33.63
2022-12-18T03:48:40.539Z,37.80
2022-12-18T03:51:17.694Z,37.23
2022-12-18T03:53:53.192Z,17.30
2022-12-18T03:56:29.981Z,31.03
2022-12-18T03:59:03.885Z,31.27
2022-12-18T04:01:39.786Z,28.50
2022-12-18T04:04:11.031Z,24.47
2022-12-18T04:06:43.495Z,32.83
2022-12-18T04:09:15.217Z,28.87
2022-12-18T04:11:52.122Z,30.90
2022-12-18T04:14:21.456Z,25.23
2022-12-18T04:16:56.350Z,31.80
2022-12-18T04:19:33.050Z,39.30
2022-12-18T04:22:04.615Z,30.93
2022-12-18T04:24:43.632Z,32.03
2022-12-18T04:27:22.130Z,32.77
2022-12-18T04:29:53.844Z,27.23
2022-12-18T04:32:25.865Z,32.97
2022-12-18T04:34:55.429Z,41.37
2022-12-18T04:37:25.246Z,32.63
2022-12-18T04:39:54.842Z,39.63
2022-12-18T04:42:32.736Z,32.40
2022-12-18T04:45:04.764Z,27.40
2022-12-18T04:47:35.947Z,24.50
2022-12-18T04:50:05.692Z,23.43
2022-12-18T04:52:35.130Z,19.80
2022-12-18T04:55:04.604Z,27.90
2022-12-18T04:57:33.962Z,27.63
2022-12-18T05:00:03.228Z,36.97
2022-12-18T05:02:32.655Z,29.60
2022-12-18T05:05:03.499Z,34.03
2022-12-18T05:07:32.919Z,35.97
2022-12-18T05:10:02.404Z,43.43
2022-12-18T05:12:31.786Z,40.93
2022-12-18T05:15:00.965Z,29.60
2022-12-18T05:17:33.210Z,24.83
2022-12-18T05:20:04.451Z,36.10
2022-12-18T05:22:33.536Z,40.00
2022-12-18T05:25:04.055Z,36.63
2022-12-18T05:27:33.109Z,37.80
2022-12-18T05:30:02.706Z,27.13
2022-12-18T05:32:32.357Z,35.40
2022-12-18T05:35:01.602Z,21.43
2022-12-18T05:37:32.520Z,33.63
2022-12-18T05:40:01.864Z,32.00
2022-12-18T05:42:31.337Z,24.13
2022-12-18T05:45:01.413Z,32.07
2022-12-18T05:47:31.367Z,21.53
2022-12-18T05:50:02.151Z,25.03
2022-12-18T05:52:34.185Z,28.70
2022-12-18T05:55:03.483Z,34.20
2022-12-18T05:57:32.683Z,23.47
2022-12-18T06:00:01.890Z,28.10
2022-12-18T06:02:42.092Z,30.13
2022-12-18T06:05:12.573Z,27.60
2022-12-18T06:07:43.490Z,39.20
2022-12-18T06:10:13.120Z,29.20
2022-12-18T06:12:45.227Z,19.83
2022-12-18T06:15:14.607Z,21.33
2022-12-18T06:17:45.344Z,35.40
2022-12-18T06:20:15.792Z,32.17
2022-12-18T06:22:47.812Z,36.37
2022-12-18T06:25:17.056Z,34.67
2022-12-18T06:27:46.791Z,33.20
2022-12-18T06:30:16.788Z,39.60
2022-12-18T06:32:46.099Z,30.90
2022-12-18T06:35:18.707Z,45.47
2022-12-18T06:37:52.397Z,45.53
2022-12-18T06:40:21.722Z,30.03
2022-12-18T06:42:52.729Z,39.10
2022-12-18T06:45:23.117Z,24.17
2022-12-18T06:47:52.661Z,39.43
2022-12-18T06:50:22.060Z,44.73
2022-12-18T06:52:52.912Z,45.80
2022-12-18T06:55:22.871Z,43.53
2022-12-18T06:57:52.616Z,46.10
2022-12-18T07:00:24.436Z,45.90
2022-12-18T07:02:54.180Z,47.83
2022-12-18T07:05:24.344Z,20.13
2022-12-18T07:07:55.392Z,48.87
2022-12-18T07:10:25.298Z,35.33
2022-12-18T07:12:54.980Z,35.40
2022-12-18T07:15:24.837Z,12.30
2022-12-18T07:17:54.209Z,27.80
2022-12-18T07:20:24.889Z,38.90
2022-12-18T07:22:56.696Z,34.50
2022-12-18T07:25:26.104Z,37.90
2022-12-18T07:27:55.779Z,43.83
2022-12-18T07:30:26.446Z,45.53
2022-12-18T07:32:56.518Z,37.10
2022-12-18T07:35:28.838Z,45.13
2022-12-18T07:37:59.401Z,40.20
2022-12-18T07:40:31.370Z,35.87
2022-12-18T07:43:00.952Z,41.27
2022-12-18T07:45:30.996Z,44.33
2022-12-18T07:48:00.347Z,45.20
2022-12-18T07:50:30.352Z,48.37
2022-12-18T07:53:04.712Z,47.47
2022-12-18T07:55:54.764Z,42.50
2022-12-18T07:58:23.618Z,38.63
2022-12-18T08:00:53.608Z,29.60
2022-12-18T08:03:23.129Z,38.10
2022-12-18T08:05:52.176Z,41.17
2022-12-18T08:08:23.477Z,39.30
2022-12-18T08:10:52.956Z,36.60
2022-12-18T08:13:22.279Z,46.33
2022-12-18T08:15:59.751Z,36.40
2022-12-18T08:18:29.712Z,22.73
2022-12-18T08:20:59.075Z,50.60
2022-12-18T08:23:30.138Z,41.20
2022-12-18T08:26:01.325Z,27.50
2022-12-18T08:28:33.077Z,35.67
2022-12-18T08:31:02.606Z,36.00
2022-12-18T08:33:32.427Z,37.40
2022-12-18T08:36:02.476Z,29.80
2022-12-18T08:38:33.579Z,41.30
2022-12-18T08:41:04.200Z,29.20
2022-12-18T08:43:51.087Z,34.33
2022-12-18T08:46:20.814Z,40.57
2022-12-18T08:48:50.647Z,33.37
2022-12-18T08:51:20.468Z,47.07
2022-12-18T08:53:54.302Z,38.40
2022-12-18T08:56:23.619Z,40.10
2022-12-18T08:58:55.806Z,21.77
2022-12-18T09:01:25.788Z,47.17
2022-12-18T09:03:55.559Z,19.60
2022-12-18T09:06:25.773Z,26.30
2022-12-18T09:08:56.043Z,47.53
2022-12-18T09:11:27.291Z,53.13
2022-12-18T09:13:57.705Z,30.37
2022-12-18T09:16:32.424Z,41.33
2022-12-18T09:19:05.463Z,41.87
2022-12-18T09:21:37.098Z,39.10
2022-12-18T09:24:14.794Z,33.93
2022-12-18T09:26:47.216Z,38.77
2022-12-18T09:29:18.774Z,51.10
2022-12-18T09:31:48.626Z,47.80
2022-12-18T09:34:21.775Z,51.00
2022-12-18T09:36:52.378Z,32.77
2022-12-18T09:39:24.295Z,36.00
2022-12-18T09:41:56.320Z,38.37
2022-12-18T09:44:33.178Z,35.50
2022-12-18T09:47:16.300Z,27.07
2022-12-18T09:49:47.684Z,38.63
2022-12-18T09:52:22.259Z,39.93
2022-12-18T09:55:03.382Z,39.20
2022-12-18T09:57:36.593Z,41.77
2022-12-18T10:00:14.529Z,37.53
2022-12-18T10:02:44.450Z,25.43
2022-12-18T10:05:16.979Z,23.43
2022-12-18T10:07:58.301Z,30.20
2022-12-18T10:10:37.663Z,38.33
2022-12-18T10:13:13.189Z,39.27
2022-12-18T10:15:53.159Z,42.50
2022-12-18T10:18:35.845Z,23.17
2022-12-18T10:21:07.948Z,16.27
2022-12-18T10:23:48.211Z,30.80
2022-12-18T10:26:19.959Z,23.73
2022-12-18T10:28:51.206Z,34.23
2022-12-18T10:31:25.184Z,31.53
2022-12-18T10:33:56.492Z,46.13
2022-12-18T10:36:27.658Z,45.47
2022-12-18T10:38:56.759Z,33.63
2022-12-18T10:41:40.548Z,36.20
2022-12-18T10:44:20.889Z,40.37
2022-12-18T10:46:54.217Z,35.30
2022-12-18T10:49:27.076Z,26.27
2022-12-18T10:52:14.216Z,36.00
2022-12-18T10:54:49.740Z,43.23
2022-12-18T10:57:33.442Z,40.03
2022-12-18T11:00:23.239Z,35.17
2022-12-18T11:02:56.230Z,38.30
2022-12-18T11:05:32.725Z,28.60
2022-12-18T11:08:04.451Z,23.07
2022-12-18T11:10:35.849Z,28.67
2022-12-18T11:13:23.108Z,21.90
2022-12-18T11:15:53.722Z,32.97
2022-12-18T11:18:30.654Z,39.97
2022-12-18T11:21:03.302Z,22.10
2022-12-18T11:23:33.386Z,28.07
2022-12-18T11:26:04.724Z,28.63
2022-12-18T11:28:43.054Z,35.17
2022-12-18T11:31:32.836Z,32.63
2022-12-18T11:34:28.550Z,34.47
2022-12-18T11:36:58.808Z,13.30
2022-12-18T11:39:35.262Z,38.97
2022-12-18T11:42:13.057Z,37.97
2022-12-18T11:44:51.239Z,30.00
2022-12-18T11:47:32.263Z,33.80
2022-12-18T11:50:05.438Z,45.20
2022-12-18T11:52:40.594Z,40.17
2022-12-18T11:55:17.802Z,41.30
2022-12-18T11:57:57.852Z,29.97
2022-12-18T12:00:28.525Z,36.43
2022-12-18T12:03:28.251Z,30.20
2022-12-18T12:06:08.201Z,32.20
2022-12-18T12:08:51.632Z,44.27
2022-12-18T12:11:31.535Z,45.90
2022-12-18T12:14:16.887Z,34.37
2022-12-18T12:16:54.101Z,38.50
2022-12-18T12:19:40.887Z,38.17
2022-12-18T12:22:18.395Z,48.17
2022-12-18T12:25:00.980Z,34.97
2022-12-18T12:27:41.121Z,39.80
2022-12-18T12:30:13.820Z,28.57
2022-12-18T12:33:01.679Z,42.40
2022-12-18T12:35:40.996Z,30.73
2022-12-18T12:38:15.372Z,51.83
2022-12-18T12:40:55.194Z,20.23
2022-12-18T12:43:34.810Z,35.30
2022-12-18T12:46:07.938Z,30.27
2022-12-18T12:48:49.509Z,28.70
2022-12-18T12:51:22.209Z,38.80
2022-12-18T12:53:53.807Z,40.27
2022-12-18T12:56:25.434Z,34.70
2022-12-18T12:59:03.907Z,45.13
2022-12-18T13:01:39.741Z,48.80
2022-12-18T13:04:24.865Z,42.80
2022-12-18T13:07:03.260Z,42.10
2022-12-18T13:09:37.090Z,49.00
2022-12-18T13:12:29.063Z,57.50
2022-12-18T13:15:15.983Z,35.37
2022-12-18T13:17:48.911Z,42.13
2022-12-18T13:20:19.959Z,35.60
2022-12-18T13:22:51.610Z,36.10
2022-12-18T13:25:35.184Z,36.43
2022-12-18T13:28:09.737Z,30.87
2022-12-18T13:30:50.798Z,34.03
2022-12-18T13:36:37.471Z,31.90
2022-12-18T13:39:32.724Z,50.83
2022-12-18T13:43:07.105Z,45.47
2022-12-18T13:45:51.071Z,47.63
2022-12-18T13:48:26.718Z,45.20
2022-12-18T13:51:01.514Z,46.30
2022-12-18T13:53:39.159Z,26.07
2022-12-18T13:56:08.487Z,36.00
2022-12-18T13:58:40.123Z,42.90
2022-12-18T14:01:28.019Z,40.40
2022-12-18T14:04:12.665Z,28.60
2022-12-18T14:06:43.504Z,49.83
2022-12-18T14:09:21.561Z,38.60
2022-12-18T14:11:51.965Z,45.63
2022-12-18T14:14:24.162Z,32.73
2022-12-18T14:16:57.902Z,42.33
2022-12-18T14:19:28.533Z,30.17
2022-12-18T14:22:03.010Z,52.63
2022-12-18T14:24:38.888Z,57.13
2022-12-18T14:27:23.283Z,35.03
2022-12-18T14:30:00.320Z,28.27
2022-12-18T14:32:30.074Z,57.60
2022-12-18T14:35:00.345Z,46.93
2022-12-18T14:37:30.619Z,37.53
2022-12-18T14:40:10.145Z,45.93
2022-12-18T14:42:40.986Z,30.80
2022-12-18T14:45:41.700Z,46.13
2022-12-18T14:48:22.841Z,27.93
2022-12-18T14:52:13.013Z,52.60
2022-12-18T14:55:24.180Z,39.63
2022-12-18T14:57:57.948Z,24.17
2022-12-18T15:00:29.926Z,43.90
2022-12-18T15:03:01.665Z,29.37
2022-12-18T15:09:26.871Z,31.63
2022-12-18T15:15:27.478Z,41.87
2022-12-18T15:18:00.332Z,36.97
2022-12-18T15:20:30.364Z,27.07
2022-12-18T15:22:59.951Z,50.53
2022-12-18T15:25:35.753Z,41.70
2022-12-18T15:28:18.735Z,37.43
2022-12-18T15:31:01.992Z,44.87
2022-12-18T15:33:34.927Z,43.07
2022-12-18T15:36:07.349Z,42.77
2022-12-18T15:38:37.292Z,50.00
2022-12-18T15:41:11.532Z,33.07
2022-12-18T15:43:46.924Z,43.73
2022-12-18T15:46:18.125Z,36.57
2022-12-18T15:48:48.912Z,26.10
2022-12-18T15:51:21.400Z,26.03
2022-12-18T15:53:55.318Z,53.63
2022-12-18T15:56:42.142Z,37.97
2022-12-18T15:59:15.799Z,43.27
2022-12-18T16:01:48.013Z,56.37
2022-12-18T16:04:19.169Z,29.13
2022-12-18T16:07:13.900Z,54.17
2022-12-18T16:09:39.945Z,39.00
2022-12-18T16:12:15.545Z,35.90
2022-12-18T16:14:46.716Z,36.67
2022-12-18T16:17:16.926Z,46.50
2022-12-18T16:19:46.013Z,33.23
2022-12-18T16:22:27.101Z,39.87
2022-12-18T16:24:59.130Z,37.80
2022-12-18T16:27:29.559Z,37.97
2022-12-18T16:30:00.275Z,47.73
2022-12-18T16:32:30.676Z,50.53
2022-12-18T16:35:03.751Z,35.90
2022-12-18T16:37:35.022Z,41.07
2022-12-18T16:40:04.177Z,38.77
2022-12-18T16:42:36.376Z,45.60
2022-12-18T16:45:09.005Z,61.23
2022-12-18T16:47:38.716Z,56.20
2022-12-18T16:50:09.328Z,57.63
2022-12-18T16:52:39.879Z,56.57
2022-12-18T16:55:09.841Z,55.83
2022-12-18T16:57:38.770Z,68.67
2022-12-18T17:00:11.538Z,70.03
2022-12-18T17:02:41.437Z,53.33
2022-12-18T17:05:11.464Z,70.03
2022-12-18T17:07:41.244Z,64.73
2022-12-18T17:10:10.487Z,51.07
2022-12-18T17:12:42.204Z,49.90
2022-12-18T17:15:15.258Z,57.63
2022-12-18T17:17:45.605Z,72.43
2022-12-18T17:20:14.961Z,86.07
2022-12-18T17:22:44.517Z,72.10
2022-12-18T17:25:13.405Z,73.73
2022-12-18T17:27:44.793Z,79.77
2022-12-18T17:30:16.241Z,59.37
2022-12-18T17:32:50.324Z,57.07
2022-12-18T17:35:19.945Z,63.83
2022-12-18T17:37:49.656Z,72.80
2022-12-18T17:40:21.597Z,71.30
2022-12-18T17:42:51.477Z,73.77
2022-12-18T17:45:22.858Z,65.03
2022-12-18T17:47:58.234Z,65.47
2022-12-18T17:50:28.941Z,65.63
2022-12-18T17:52:58.599Z,77.23
2022-12-18T17:55:28.058Z,98.07
2022-12-18T17:57:57.805Z,64.70
2022-12-18T18:00:28.420Z,100.77
2022-12-18T18:02:59.665Z,84.20
2022-12-18T18:05:29.315Z,89.00
2022-12-18T18:07:59.280Z,102.97
2022-12-18T18:10:28.368Z,68.90
2022-12-18T18:13:14.909Z,102.30
2022-12-18T18:15:45.657Z,84.90
2022-12-18T18:18:15.106Z,82.13
2022-12-18T18:20:47.737Z,75.63
2022-12-18T18:23:19.760Z,76.83
2022-12-18T18:25:51.697Z,77.77
2022-12-18T18:28:21.209Z,96.50
2022-12-18T18:30:51.310Z,108.53
2022-12-18T18:33:20.837Z,103.40
2022-12-18T18:35:54.479Z,111.73
2022-12-18T18:38:24.334Z,87.83
2022-12-18T18:41:00.317Z,98.87
2022-12-18T18:43:29.632Z,76.07
2022-12-18T18:46:02.091Z,79.10
2022-12-18T18:48:36.156Z,96.47
2022-12-18T18:51:09.295Z,77.57
2022-12-18T18:53:41.740Z,101.80
2022-12-18T18:59:08.187Z,113.93
2022-12-18T19:01:44.697Z,88.43
2022-12-18T19:04:24.560Z,84.57
2022-12-18T19:06:56.814Z,95.47
2022-12-18T19:09:32.017Z,91.13
2022-12-18T19:12:24.525Z,109.87
2022-12-18T19:14:53.984Z,89.50
2022-12-18T19:17:29.571Z,82.67
2022-12-18T19:20:00.485Z,99.47
2022-12-18T19:22:30.070Z,100.43
2022-12-18T19:24:59.263Z,98.03
2022-12-18T19:27:29.130Z,82.17
2022-12-18T19:29:58.369Z,92.47
2022-12-18T19:32:29.869Z,56.27
2022-12-18T19:35:00.157Z,90.80
2022-12-18T19:37:29.698Z,91.53
2022-12-18T19:39:58.861Z,90.10
2022-12-18T19:42:35.363Z,58.67
2022-12-18T19:45:05.042Z,104.03
2022-12-18T19:47:35.881Z,123.33
2022-12-18T19:50:05.556Z,100.20
2022-12-18T19:52:34.837Z,103.03
2022-12-18T19:55:04.768Z,88.67
2022-12-18T19:57:34.356Z,80.30
2022-12-18T20:00:05.983Z,112.60
2022-12-18T20:02:43.727Z,103.33
2022-12-18T20:05:14.993Z,92.33
2022-12-18T20:07:44.137Z,104.13
2022-12-18T20:10:16.257Z,117.10
2022-12-18T20:12:48.946Z,93.00
2022-12-18T20:15:18.382Z,119.53
2022-12-18T20:17:49.991Z,111.17
2022-12-18T20:20:20.282Z,151.97
2022-12-18T20:22:49.771Z,62.23
2022-12-18T20:25:19.701Z,102.17
2022-12-18T20:27:49.516Z,104.83
2022-12-18T20:30:20.131Z,82.47
2022-12-18T20:32:52.446Z,89.60
2022-12-18T20:35:22.373Z,96.60
2022-12-18T20:37:54.029Z,66.80
2022-12-18T20:40:28.110Z,58.40
2022-12-18T20:42:57.938Z,75.83
2022-12-18T20:45:30.665Z,84.20
2022-12-18T20:48:02.923Z,58.33
2022-12-18T20:50:32.358Z,43.70
2022-12-18T20:53:02.043Z,59.90
2022-12-18T20:55:31.604Z,34.30
2022-12-18T20:58:00.853Z,55.30
2022-12-18T21:00:30.469Z,48.77
2022-12-18T21:03:01.921Z,76.90
2022-12-18T21:05:31.839Z,66.10
2022-12-18T21:08:04.708Z,66.93
2022-12-18T21:10:33.959Z,99.90
2022-12-18T21:13:06.100Z,76.23
2022-12-18T21:15:37.534Z,66.97
2022-12-18T21:18:09.526Z,82.00
2022-12-18T21:20:39.176Z,74.03
2022-12-18T21:23:16.356Z,100.40
2022-12-18T21:25:49.443Z,81.80
2022-12-18T21:28:26.146Z,60.23
2022-12-18T21:30:55.740Z,82.90
2022-12-18T21:33:27.372Z,77.43
2022-12-18T21:35:57.002Z,47.00
2022-12-18T21:38:26.767Z,60.70
2022-12-18T21:40:56.596Z,109.80
2022-12-18T21:43:43.700Z,59.77
2022-12-18T21:46:13.321Z,76.40
2022-12-18T21:48:44.816Z,97.87
